Abernant, Alabama
Current Conditions -  °F | °C
As of 2:53 PM on Friday 19 Dec 2014 (Local Time) from KTCL Reporting Station
Overcast Overcast  
Wind Chill: 45°   Ceiling: 9000
Heat Index: 49°   Visibility: 10mi
Dew Point: 38°   Wind: 9mph
Humidity: 66%   Direction: 20°NNE
Pressure: 30.16"   Gusts: NA
Location:  33.29°N, 87.2°W
Report Text: KTCL 192053Z 02008KT 10SM OVC090 09/03 A3016 RMK AO2 RAB32E52 SLP212 P0000 60000 T00940033 56021
Loading
Personal Weather Stations






























Interactive Weather Map New forecast layout! Learn more

10-Day Weather Forecast

Advertisements
Track Severe Weather on mobile